sensor_id;sensor_type;location;lat;lon;timestamp;P1;durP1;ratioP1;P2;durP2;ratioP2
35562;SDS011;21665;40.108;18.302;2023-05-10T00:56:26;17.02;;;15.27;;
35562;SDS011;21665;40.108;18.302;2023-05-10T01:01:54;18.17;;;15.10;;
35562;SDS011;21665;40.108;18.302;2023-05-10T01:07:48;15.73;;;14.02;;
35562;SDS011;21665;40.108;18.302;2023-05-10T01:10:33;17.10;;;14.80;;
35562;SDS011;21665;40.108;18.302;2023-05-10T01:13:35;16.40;;;14.73;;
35562;SDS011;21665;40.108;18.302;2023-05-10T01:16:22;16.70;;;14.95;;
35562;SDS011;21665;40.108;18.302;2023-05-10T01:36:10;16.45;;;14.75;;
35562;SDS011;21665;40.108;18.302;2023-05-10T01:51:18;17.58;;;14.95;;
35562;SDS011;21665;40.108;18.302;2023-05-10T01:54:22;16.85;;;15.00;;
35562;SDS011;21665;40.108;18.302;2023-05-10T01:57:39;15.70;;;14.18;;
35562;SDS011;21665;40.108;18.302;2023-05-10T02:01:01;16.23;;;14.57;;
35562;SDS011;21665;40.108;18.302;2023-05-10T02:04:10;15.27;;;13.93;;
35562;SDS011;21665;40.108;18.302;2023-05-10T02:07:08;16.13;;;14.60;;
35562;SDS011;21665;40.108;18.302;2023-05-10T02:09:59;15.95;;;14.27;;
35562;SDS011;21665;40.108;18.302;2023-05-10T02:16:30;15.38;;;13.82;;
35562;SDS011;21665;40.108;18.302;2023-05-10T02:19:03;14.97;;;13.60;;
35562;SDS011;21665;40.108;18.302;2023-05-10T02:21:31;15.15;;;13.73;;
35562;SDS011;21665;40.108;18.302;2023-05-10T02:24:04;14.90;;;13.50;;
35562;SDS011;21665;40.108;18.302;2023-05-10T02:26:33;15.45;;;13.88;;
35562;SDS011;21665;40.108;18.302;2023-05-10T02:29:10;15.18;;;13.77;;
35562;SDS011;21665;40.108;18.302;2023-05-10T02:31:43;15.45;;;13.93;;
35562;SDS011;21665;40.108;18.302;2023-05-10T02:34:17;15.80;;;14.30;;
35562;SDS011;21665;40.108;18.302;2023-05-10T02:36:56;15.43;;;13.82;;
35562;SDS011;21665;40.108;18.302;2023-05-10T02:39:51;15.07;;;13.68;;
35562;SDS011;21665;40.108;18.302;2023-05-10T02:46:39;14.80;;;13.25;;
35562;SDS011;21665;40.108;18.302;2023-05-10T02:50:00;15.90;;;13.55;;
35562;SDS011;21665;40.108;18.302;2023-05-10T02:52:53;15.00;;;13.50;;
35562;SDS011;21665;40.108;18.302;2023-05-10T02:55:58;15.95;;;13.32;;
35562;SDS011;21665;40.108;18.302;2023-05-10T02:59:11;14.75;;;13.25;;
35562;SDS011;21665;40.108;18.302;2023-05-10T03:02:01;16.67;;;13.98;;
35562;SDS011;21665;40.108;18.302;2023-05-10T03:14:16;14.90;;;13.10;;
35562;SDS011;21665;40.108;18.302;2023-05-10T03:17:00;20.17;;;13.52;;
35562;SDS011;21665;40.108;18.302;2023-05-10T03:20:08;14.70;;;12.60;;
35562;SDS011;21665;40.108;18.302;2023-05-10T03:22:44;18.05;;;13.38;;
35562;SDS011;21665;40.108;18.302;2023-05-10T03:25:24;18.10;;;12.80;;
35562;SDS011;21665;40.108;18.302;2023-05-10T03:28:41;14.10;;;12.70;;
35562;SDS011;21665;40.108;18.302;2023-05-10T03:31:09;16.95;;;12.98;;
35562;SDS011;21665;40.108;18.302;2023-05-10T03:33:48;15.32;;;13.23;;
35562;SDS011;21665;40.108;18.302;2023-05-10T03:36:21;17.02;;;13.38;;
35562;SDS011;21665;40.108;18.302;2023-05-10T03:38:58;17.45;;;13.75;;
35562;SDS011;21665;40.108;18.302;2023-05-10T03:41:39;15.57;;;13.35;;
35562;SDS011;21665;40.108;18.302;2023-05-10T03:44:08;14.20;;;12.80;;
35562;SDS011;21665;40.108;18.302;2023-05-10T03:46:34;15.32;;;13.73;;
35562;SDS011;21665;40.108;18.302;2023-05-10T03:49:02;15.75;;;13.43;;
35562;SDS011;21665;40.108;18.302;2023-05-10T03:51:29;16.55;;;12.48;;
35562;SDS011;21665;40.108;18.302;2023-05-10T03:54:00;17.00;;;13.40;;
35562;SDS011;21665;40.108;18.302;2023-05-10T03:56:27;14.85;;;13.20;;
35562;SDS011;21665;40.108;18.302;2023-05-10T03:58:57;19.95;;;13.95;;
35562;SDS011;21665;40.108;18.302;2023-05-10T04:01:24;17.27;;;13.90;;
35562;SDS011;21665;40.108;18.302;2023-05-10T04:03:51;18.65;;;14.38;;
35562;SDS011;21665;40.108;18.302;2023-05-10T04:06:17;17.88;;;14.10;;
35562;SDS011;21665;40.108;18.302;2023-05-10T04:08:44;18.63;;;13.93;;
35562;SDS011;21665;40.108;18.302;2023-05-10T04:11:11;17.90;;;13.43;;
35562;SDS011;21665;40.108;18.302;2023-05-10T04:13:39;14.95;;;13.45;;
35562;SDS011;21665;40.108;18.302;2023-05-10T04:16:06;17.20;;;13.82;;
35562;SDS011;21665;40.108;18.302;2023-05-10T04:18:32;16.40;;;13.30;;
35562;SDS011;21665;40.108;18.302;2023-05-10T04:20:59;15.27;;;13.20;;
35562;SDS011;21665;40.108;18.302;2023-05-10T04:23:26;16.58;;;14.10;;
35562;SDS011;21665;40.108;18.302;2023-05-10T04:25:58;18.90;;;13.50;;
35562;SDS011;21665;40.108;18.302;2023-05-10T04:28:28;15.50;;;13.50;;
35562;SDS011;21665;40.108;18.302;2023-05-10T04:31:00;17.00;;;13.55;;
35562;SDS011;21665;40.108;18.302;2023-05-10T04:33:31;16.98;;;13.25;;
35562;SDS011;21665;40.108;18.302;2023-05-10T04:36:03;16.52;;;13.80;;
35562;SDS011;21665;40.108;18.302;2023-05-10T04:38:29;22.05;;;13.95;;
35562;SDS011;21665;40.108;18.302;2023-05-10T04:41:09;15.80;;;14.07;;
35562;SDS011;21665;40.108;18.302;2023-05-10T04:43:36;15.80;;;13.70;;
35562;SDS011;21665;40.108;18.302;2023-05-10T04:46:04;16.17;;;14.40;;
35562;SDS011;21665;40.108;18.302;2023-05-10T04:48:32;15.50;;;13.90;;
35562;SDS011;21665;40.108;18.302;2023-05-10T04:50:59;15.82;;;14.10;;
35562;SDS011;21665;40.108;18.302;2023-05-10T04:53:26;17.27;;;14.52;;
35562;SDS011;21665;40.108;18.302;2023-05-10T04:55:53;17.02;;;14.10;;
35562;SDS011;21665;40.108;18.302;2023-05-10T04:58:19;23.23;;;14.45;;
35562;SDS011;21665;40.108;18.302;2023-05-10T05:00:46;20.88;;;14.95;;
35562;SDS011;21665;40.108;18.302;2023-05-10T05:03:13;16.98;;;15.02;;
35562;SDS011;21665;40.108;18.302;2023-05-10T05:05:40;16.60;;;14.35;;
35562;SDS011;21665;40.108;18.302;2023-05-10T05:08:06;17.13;;;15.32;;
35562;SDS011;21665;40.108;18.302;2023-05-10T05:10:36;19.23;;;15.77;;
35562;SDS011;21665;40.108;18.302;2023-05-10T05:13:09;16.33;;;14.52;;
35562;SDS011;21665;40.108;18.302;2023-05-10T05:15:35;17.63;;;15.52;;
35562;SDS011;21665;40.108;18.302;2023-05-10T05:18:02;16.10;;;14.40;;
35562;SDS011;21665;40.108;18.302;2023-05-10T05:20:31;17.73;;;16.02;;
35562;SDS011;21665;40.108;18.302;2023-05-10T05:22:59;20.02;;;15.73;;
35562;SDS011;21665;40.108;18.302;2023-05-10T05:25:29;17.30;;;15.65;;
35562;SDS011;21665;40.108;18.302;2023-05-10T05:28:02;18.20;;;16.48;;
35562;SDS011;21665;40.108;18.302;2023-05-10T05:30:30;18.25;;;16.55;;
35562;SDS011;21665;40.108;18.302;2023-05-10T05:33:00;19.17;;;17.38;;
35562;SDS011;21665;40.108;18.302;2023-05-10T05:35:32;19.23;;;17.50;;
35562;SDS011;21665;40.108;18.302;2023-05-10T05:37:58;20.08;;;18.35;;
35562;SDS011;21665;40.108;18.302;2023-05-10T05:40:25;21.65;;;19.77;;
35562;SDS011;21665;40.108;18.302;2023-05-10T05:42:52;22.08;;;20.27;;
35562;SDS011;21665;40.108;18.302;2023-05-10T05:45:21;23.20;;;21.40;;
35562;SDS011;21665;40.108;18.302;2023-05-10T05:47:57;23.90;;;21.75;;
35562;SDS011;21665;40.108;18.302;2023-05-10T06:09:10;23.80;;;21.58;;
35562;SDS011;21665;40.108;18.302;2023-05-10T06:12:01;23.85;;;22.05;;
35562;SDS011;21665;40.108;18.302;2023-05-10T06:14:57;23.98;;;22.27;;
35562;SDS011;21665;40.108;18.302;2023-05-10T06:17:35;23.95;;;22.30;;
35562;SDS011;21665;40.108;18.302;2023-05-10T06:20:29;25.10;;;23.10;;
35562;SDS011;21665;40.108;18.302;2023-05-10T06:23:16;24.08;;;22.38;;
35562;SDS011;21665;40.108;18.302;2023-05-10T06:25:51;24.80;;;22.70;;
35562;SDS011;21665;40.108;18.302;2023-05-10T06:28:28;24.13;;;22.33;;
35562;SDS011;21665;40.108;18.302;2023-05-10T06:31:08;24.38;;;22.67;;
35562;SDS011;21665;40.108;18.302;2023-05-10T06:34:01;23.38;;;21.80;;
35562;SDS011;21665;40.108;18.302;2023-05-10T06:36:36;24.05;;;22.35;;
35562;SDS011;21665;40.108;18.302;2023-05-10T06:39:10;24.10;;;22.25;;
35562;SDS011;21665;40.108;18.302;2023-05-10T06:41:45;23.58;;;21.95;;
35562;SDS011;21665;40.108;18.302;2023-05-10T10:54:33;22.67;;;21.10;;
35562;SDS011;21665;40.108;18.302;2023-05-10T13:33:57;24.50;;;23.00;;
35562;SDS011;21665;40.108;18.302;2023-05-10T13:36:35;25.05;;;23.45;;
35562;SDS011;21665;40.108;18.302;2023-05-10T22:56:22;18.08;;;10.30;;
35562;SDS011;21665;40.108;18.302;2023-05-10T22:58:50;20.08;;;10.73;;
35562;SDS011;21665;40.108;18.302;2023-05-10T23:01:19;16.40;;;11.05;;
35562;SDS011;21665;40.108;18.302;2023-05-10T23:03:46;16.38;;;11.05;;
